createdAt,value
2022-09-18T00:04:35.337Z,10.99
2022-09-18T00:09:36.677Z,11.02
2022-09-18T00:14:38.076Z,11.00
2022-09-18T00:19:39.426Z,10.99
2022-09-18T00:24:40.697Z,10.97
2022-09-18T00:29:41.977Z,10.96
2022-09-18T00:34:43.252Z,10.95
2022-09-18T00:39:44.815Z,10.94
2022-09-18T00:44:47.049Z,10.96
2022-09-18T00:49:57.028Z,10.98
2022-09-18T00:55:02.273Z,10.95
2022-09-18T01:00:10.664Z,10.95
2022-09-18T01:05:14.029Z,10.99
2022-09-18T01:10:24.452Z,11.03
2022-09-18T01:15:34.953Z,11.03
2022-09-18T01:20:37.558Z,11.04
2022-09-18T01:25:50.460Z,11.04
2022-09-18T01:30:55.173Z,11.04
2022-09-18T01:35:59.753Z,11.04
2022-09-18T01:41:02.645Z,11.00
2022-09-18T01:46:07.164Z,10.97
2022-09-18T01:51:20.474Z,11.00
2022-09-18T01:56:31.006Z,10.96
2022-09-18T02:01:33.650Z,10.94
2022-09-18T02:06:41.924Z,10.88
2022-09-18T02:11:45.972Z,10.88
2022-09-18T02:16:52.913Z,10.87
2022-09-18T02:21:56.034Z,10.81
2022-09-18T02:26:58.259Z,10.74
2022-09-18T02:32:00.292Z,10.68
2022-09-18T02:37:20.229Z,10.67
2022-09-18T02:42:21.530Z,10.59
2022-09-18T02:47:33.744Z,10.50
2022-09-18T02:52:41.811Z,10.39
2022-09-18T02:57:46.577Z,10.35
2022-09-18T03:02:50.003Z,10.31
2022-09-18T03:08:02.589Z,10.30
2022-09-18T03:13:05.575Z,10.33
2022-09-18T03:18:07.063Z,10.31
2022-09-18T03:23:08.713Z,10.30
2022-09-18T03:28:10.480Z,10.33
2022-09-18T03:33:14.888Z,10.32
2022-09-18T03:38:17.805Z,10.30
2022-09-18T03:43:19.438Z,10.28
2022-09-18T03:48:21.371Z,10.26
2022-09-18T03:53:24.153Z,10.23
2022-09-18T03:58:43.899Z,10.20
2022-09-18T04:04:11.053Z,10.17
2022-09-18T04:09:35.459Z,10.15
2022-09-18T04:14:36.768Z,10.22
2022-09-18T04:19:38.434Z,10.23
2022-09-18T04:24:45.312Z,10.21
2022-09-18T04:29:48.036Z,10.16
2022-09-18T04:34:51.272Z,10.17
2022-09-18T04:39:53.413Z,10.18
2022-09-18T04:44:55.841Z,10.20
2022-09-18T04:49:57.460Z,10.18
2022-09-18T04:55:01.379Z,10.16
2022-09-18T05:00:04.635Z,10.13
2022-09-18T05:05:06.510Z,10.13
2022-09-18T05:10:10.458Z,10.13
2022-09-18T05:15:13.421Z,10.14
2022-09-18T05:20:15.110Z,10.12
2022-09-18T05:25:20.503Z,10.09
2022-09-18T05:30:22.586Z,10.08
2022-09-18T05:35:29.669Z,10.15
2022-09-18T05:40:34.141Z,10.18
2022-09-18T05:45:36.935Z,10.23
2022-09-18T05:50:50.784Z,10.29
2022-09-18T05:55:52.595Z,10.33
2022-09-18T06:00:56.671Z,10.34
2022-09-18T06:06:02.954Z,10.39
2022-09-18T06:11:04.356Z,10.55
2022-09-18T06:16:07.063Z,10.64
2022-09-18T06:21:21.217Z,10.78
2022-09-18T06:26:22.611Z,10.86
2022-09-18T06:31:24.915Z,10.88
2022-09-18T06:36:35.336Z,10.93
2022-09-18T06:41:55.534Z,10.92
2022-09-18T06:47:19.418Z,11.02
2022-09-18T06:52:22.353Z,11.08
2022-09-18T06:57:23.676Z,11.17
2022-09-18T07:02:25.054Z,11.10
2022-09-18T07:07:46.654Z,11.01
2022-09-18T07:12:51.092Z,11.00
2022-09-18T07:17:57.535Z,11.03
2022-09-18T07:23:00.323Z,11.02
2022-09-18T07:28:13.726Z,10.99
2022-09-18T07:33:25.193Z,10.98
2022-09-18T07:38:26.687Z,10.98
2022-09-18T07:43:31.839Z,11.04
2022-09-18T07:48:35.416Z,11.16
2022-09-18T07:53:44.789Z,11.18
2022-09-18T07:58:46.970Z,11.25
2022-09-18T08:03:56.408Z,11.44
2022-09-18T08:09:09.554Z,11.57
2022-09-18T08:14:34.546Z,11.67
2022-09-18T08:20:09.678Z,11.70
2022-09-18T08:25:20.758Z,11.76
2022-09-18T08:30:23.971Z,11.90
2022-09-18T08:35:30.827Z,11.97
2022-09-18T08:40:49.340Z,12.08
2022-09-18T08:46:06.587Z,12.20
2022-09-18T08:51:17.208Z,12.35
2022-09-18T08:56:22.087Z,12.48
2022-09-18T09:02:09.954Z,12.57
2022-09-18T09:07:36.510Z,12.52
2022-09-18T09:12:46.754Z,12.54
2022-09-18T09:17:49.239Z,12.81
2022-09-18T09:22:57.321Z,12.95
2022-09-18T09:28:16.204Z,12.78
2022-09-18T09:33:53.790Z,12.56
2022-09-18T09:39:23.384Z,12.62
2022-09-18T09:44:29.181Z,12.80
2022-09-18T09:49:43.485Z,12.97
2022-09-18T09:54:45.219Z,13.25
2022-09-18T09:59:52.645Z,13.47
2022-09-18T10:05:18.101Z,13.59
2022-09-18T10:10:27.183Z,13.45
2022-09-18T10:15:38.609Z,12.80
2022-09-18T10:20:44.460Z,12.52
2022-09-18T10:25:52.174Z,12.61
2022-09-18T10:30:58.372Z,12.86
2022-09-18T10:36:08.951Z,13.08
2022-09-18T10:41:11.976Z,13.25
2022-09-18T10:46:13.863Z,13.34
2022-09-18T10:51:21.462Z,13.30
2022-09-18T10:56:25.046Z,13.46
2022-09-18T11:01:29.603Z,13.73
2022-09-18T11:06:35.071Z,13.94
2022-09-18T11:11:52.390Z,14.08
2022-09-18T11:17:00.295Z,14.23
2022-09-18T11:22:27.258Z,14.23
2022-09-18T11:27:43.296Z,14.25
2022-09-18T11:32:46.170Z,14.25
2022-09-18T11:37:52.979Z,14.33
2022-09-18T11:42:55.880Z,14.41
2022-09-18T11:48:07.990Z,14.25
2022-09-18T11:53:29.751Z,14.15
2022-09-18T11:58:34.989Z,14.06
2022-09-18T12:03:49.354Z,14.12
2022-09-18T12:09:03.124Z,14.28
2022-09-18T12:14:12.639Z,14.58
2022-09-18T12:19:17.271Z,14.91
2022-09-18T12:24:18.709Z,15.07
2022-09-18T12:29:31.246Z,15.04
2022-09-18T12:34:51.291Z,15.12
2022-09-18T12:40:04.204Z,15.13
2022-09-18T12:45:17.491Z,14.85
2022-09-18T12:50:39.609Z,14.70
2022-09-18T12:56:01.182Z,14.77
2022-09-18T13:01:04.933Z,15.07
2022-09-18T13:06:09.191Z,15.17
2022-09-18T13:11:28.419Z,15.28
2022-09-18T13:16:34.037Z,15.37
2022-09-18T13:21:43.869Z,15.61
2022-09-18T13:26:47.375Z,16.14
2022-09-18T13:31:52.826Z,16.61
2022-09-18T13:37:04.055Z,16.58
2022-09-18T13:42:05.642Z,16.62
2022-09-18T13:47:14.205Z,16.48
2022-09-18T13:52:27.542Z,16.18
2022-09-18T13:57:29.600Z,15.81
2022-09-18T14:02:32.283Z,15.46
2022-09-18T14:07:33.603Z,15.28
2022-09-18T14:12:35.440Z,15.14
2022-09-18T14:17:37.968Z,14.92
2022-09-18T14:22:40.739Z,14.70
2022-09-18T14:27:53.322Z,14.48
2022-09-18T14:33:03.562Z,14.12
2022-09-18T14:38:15.573Z,13.73
2022-09-18T14:43:17.088Z,13.32
2022-09-18T14:48:37.786Z,13.00
2022-09-18T14:53:43.862Z,12.82
2022-09-18T14:58:46.743Z,12.66
2022-09-18T15:03:50.288Z,12.55
2022-09-18T15:08:52.747Z,12.51
2022-09-18T15:13:54.959Z,12.51
2022-09-18T15:18:57.241Z,12.39
2022-09-18T15:23:59.682Z,12.32
2022-09-18T15:29:02.566Z,12.28
2022-09-18T15:34:16.663Z,12.24
2022-09-18T15:39:27.602Z,12.20
2022-09-18T15:44:28.885Z,12.18
2022-09-18T15:49:34.268Z,12.16
2022-09-18T15:54:35.552Z,12.14
2022-09-18T15:59:38.939Z,12.16
2022-09-18T16:04:40.505Z,12.15
2022-09-18T16:09:43.035Z,12.16
2022-09-18T16:14:45.998Z,12.16
2022-09-18T16:19:47.272Z,12.08
2022-09-18T16:24:49.407Z,12.08
2022-09-18T16:29:50.707Z,11.97
2022-09-18T16:34:52.000Z,11.89
2022-09-18T16:39:53.307Z,11.86
2022-09-18T16:44:54.705Z,11.85
2022-09-18T16:49:55.988Z,11.83
2022-09-18T16:54:57.268Z,11.79
2022-09-18T17:00:01.474Z,11.73
2022-09-18T17:05:03.165Z,11.69
2022-09-18T17:10:04.869Z,11.64
2022-09-18T17:15:07.109Z,11.61
2022-09-18T17:20:08.906Z,11.62
2022-09-18T17:25:11.384Z,11.61
2022-09-18T17:30:12.732Z,11.57
2022-09-18T17:35:14.420Z,11.53
2022-09-18T17:40:15.919Z,11.52
2022-09-18T17:45:17.360Z,11.48
2022-09-18T17:50:20.260Z,11.42
2022-09-18T17:55:21.597Z,11.35
2022-09-18T18:00:24.231Z,11.27
2022-09-18T18:05:26.544Z,11.26
2022-09-18T18:10:29.425Z,11.28
2022-09-18T18:15:30.765Z,11.31
2022-09-18T18:20:32.167Z,11.37
2022-09-18T18:25:34.564Z,11.37
2022-09-18T18:30:35.907Z,11.36
2022-09-18T18:35:37.310Z,11.31
2022-09-18T18:40:40.290Z,11.25
2022-09-18T18:45:52.491Z,11.18
2022-09-18T18:50:57.087Z,11.12
2022-09-18T18:56:02.349Z,11.12
2022-09-18T19:01:07.735Z,11.11
2022-09-18T19:06:11.672Z,11.10
2022-09-18T19:11:15.995Z,11.06
2022-09-18T19:16:17.673Z,11.05
2022-09-18T19:21:20.588Z,11.04
2022-09-18T19:26:23.380Z,11.02
2022-09-18T19:31:25.674Z,10.98
2022-09-18T19:36:28.099Z,10.97
2022-09-18T19:41:41.771Z,10.97
2022-09-18T19:46:43.897Z,10.92
2022-09-18T19:51:46.007Z,10.89
2022-09-18T19:56:48.157Z,10.87
2022-09-18T20:01:49.588Z,10.88
2022-09-18T20:06:51.031Z,10.87
2022-09-18T20:11:52.373Z,10.87
2022-09-18T20:16:54.895Z,10.87
2022-09-18T20:21:56.479Z,10.87
2022-09-18T20:26:58.292Z,10.85
2022-09-18T20:31:59.745Z,10.81
2022-09-18T20:37:03.271Z,10.77
2022-09-18T20:42:07.712Z,10.73
2022-09-18T20:47:09.117Z,10.72
2022-09-18T20:52:14.471Z,10.71
2022-09-18T20:57:16.109Z,10.69
2022-09-18T21:02:18.397Z,10.69
2022-09-18T21:07:21.225Z,10.67
2022-09-18T21:12:22.567Z,10.65
2022-09-18T21:17:24.170Z,10.64
2022-09-18T21:22:30.233Z,10.64
2022-09-18T21:27:31.541Z,10.64
2022-09-18T21:32:32.830Z,10.63
2022-09-18T21:37:34.105Z,10.62
2022-09-18T21:42:36.610Z,10.58
2022-09-18T21:47:39.073Z,10.57
2022-09-18T21:52:42.621Z,10.61
2022-09-18T21:57:43.959Z,10.68
2022-09-18T22:02:45.336Z,10.74
2022-09-18T22:07:47.213Z,10.77
2022-09-18T22:12:48.519Z,10.80
2022-09-18T22:17:50.272Z,10.85
2022-09-18T22:22:51.535Z,10.85
2022-09-18T22:27:52.812Z,10.88
2022-09-18T22:32:55.468Z,10.92
2022-09-18T22:37:56.939Z,10.96
2022-09-18T22:42:58.212Z,11.01
2022-09-18T22:47:59.473Z,11.02
2022-09-18T22:53:00.763Z,10.96
2022-09-18T22:58:04.532Z,10.94
2022-09-18T23:03:06.389Z,10.92
2022-09-18T23:08:07.832Z,10.87
2022-09-18T23:13:09.297Z,10.81
2022-09-18T23:18:10.572Z,10.74
2022-09-18T23:23:11.831Z,10.68
2022-09-18T23:28:13.097Z,10.67
2022-09-18T23:33:14.368Z,10.66
2022-09-18T23:38:15.642Z,10.61
2022-09-18T23:43:17.108Z,10.62
2022-09-18T23:48:18.373Z,10.59
2022-09-18T23:53:20.363Z,10.58
2022-09-18T23:58:21.620Z,10.56
